Time;durP1;ratioP1;P1;durP2;ratioP2;P2;SDS_P1;SDS_P2;PMS_P1;PMS_P2;Temp;Humidity;BMP_temperature;BMP_pressure;BME280_temperature;BME280_humidity;BME280_pressure;Samples;Min_cycle;Max_cycle;Signal;HPM_P1;HPM_P2
2023/08/11 00:00:08;;;;;;;8.43;4.32;;;;;;;17.05;84.04;101909.72;4972030;28;20129;-75
2023/08/11 00:02:38;;;;;;;6.57;4.53;;;;;;;17.00;84.33;101904.56;4988689;28;20604;-75
2023/08/11 00:05:08;;;;;;;7.53;5.00;;;;;;;16.96;84.56;101902.09;4989592;28;20053;-75
2023/08/11 00:07:35;;;;;;;8.43;4.20;;;;;;;16.90;84.80;101901.38;4961921;28;20515;-75
2023/08/11 00:10:03;;;;;;;6.75;4.18;;;;;;;16.87;84.96;101901.50;4969854;28;20596;-75
2023/08/11 00:12:30;;;;;;;8.10;4.45;;;;;;;16.83;85.29;101899.03;4953075;28;20070;-75
2023/08/11 00:14:57;;;;;;;5.30;4.28;;;;;;;16.77;85.74;101898.34;4970470;28;20268;-75
2023/08/11 00:17:24;;;;;;;8.25;4.72;;;;;;;16.73;86.17;101902.06;4987425;28;20046;-75
2023/08/11 00:19:51;;;;;;;7.50;4.50;;;;;;;16.70;85.84;101903.94;4987914;28;20038;-75
2023/08/11 00:22:18;;;;;;;7.95;4.97;;;;;;;16.67;85.87;101899.63;4972328;28;20058;-75
2023/08/11 00:24:45;;;;;;;8.70;4.63;;;;;;;16.64;85.72;101897.06;4984996;28;20407;-75
2023/08/11 00:27:13;;;;;;;12.18;4.93;;;;;;;16.60;85.98;101899.00;4968727;28;20050;-75
2023/08/11 00:29:40;;;;;;;9.95;5.20;;;;;;;16.59;86.26;101899.91;4973532;28;20093;-75
2023/08/11 00:32:07;;;;;;;6.07;4.55;;;;;;;16.55;86.46;101898.31;4988961;28;20046;-75
2023/08/11 00:34:34;;;;;;;7.60;4.47;;;;;;;16.53;86.59;101894.00;4988717;28;20108;-75
2023/08/11 00:37:01;;;;;;;6.32;4.80;;;;;;;16.50;86.94;101892.28;4971773;28;20371;-75
2023/08/11 00:39:29;;;;;;;7.18;4.78;;;;;;;16.46;87.60;101893.34;4971189;28;20030;-76
2023/08/11 00:41:56;;;;;;;8.98;5.15;;;;;;;16.44;87.38;101898.72;4989026;28;20128;-75
2023/08/11 00:44:23;;;;;;;8.07;5.18;;;;;;;16.42;87.30;101895.25;4988130;28;20538;-75
2023/08/11 00:46:50;;;;;;;10.18;5.88;;;;;;;16.41;87.35;101895.31;4989460;28;20050;-75
2023/08/11 00:49:18;;;;;;;8.52;5.32;;;;;;;16.41;87.07;101896.19;4989116;28;20046;-75
2023/08/11 00:51:46;;;;;;;10.27;5.70;;;;;;;16.40;87.21;101889.13;4993865;28;20061;-75
2023/08/11 00:54:16;;;;;;;8.02;5.00;;;;;;;16.38;87.26;101885.66;4965402;28;20532;-76
2023/08/11 00:56:45;;;;;;;6.63;5.40;;;;;;;16.37;87.47;101889.22;4971800;28;20057;-75
2023/08/11 00:59:12;;;;;;;7.55;5.43;;;;;;;16.34;87.74;101884.03;4955768;28;20042;-75
2023/08/11 01:01:40;;;;;;;8.77;5.32;;;;;;;16.30;87.80;101877.97;4989093;28;20057;-75
2023/08/11 01:04:07;;;;;;;9.32;5.45;;;;;;;16.27;87.90;101878.09;4971542;28;20489;-75
2023/08/11 01:07:09;;;;;;;8.57;6.00;;;;;;;16.25;88.06;101873.72;4987237;28;20042;-75
2023/08/11 01:10:00;;;;;;;9.48;6.38;;;;;;;16.22;88.25;101880.03;4975740;28;20591;-75
2023/08/11 01:13:07;;;;;;;10.85;5.97;;;;;;;16.22;88.20;101868.56;4965630;28;20050;-75
2023/08/11 01:15:39;;;;;;;9.63;6.28;;;;;;;16.21;87.91;101874.78;4986931;28;20054;-75
2023/08/11 01:18:08;;;;;;;11.35;6.22;;;;;;;16.19;87.95;101869.50;4988524;28;20076;-75
2023/08/11 01:20:37;;;;;;;8.55;6.68;;;;;;;16.20;88.14;101865.06;4971474;28;20044;-75
2023/08/11 01:23:07;;;;;;;9.05;6.57;;;;;;;16.19;88.30;101864.19;4988341;28;20108;-75
2023/08/11 01:25:36;;;;;;;9.98;6.78;;;;;;;16.18;88.72;101858.94;4986951;28;20505;-75
2023/08/11 01:28:04;;;;;;;8.95;6.22;;;;;;;16.16;88.87;101848.38;4970833;28;20129;-75
2023/08/11 01:30:35;;;;;;;9.43;6.85;;;;;;;16.13;88.99;101849.31;4987430;28;20108;-75
2023/08/11 01:33:03;;;;;;;9.35;6.80;;;;;;;16.13;88.98;101848.47;4970612;28;20137;-75
2023/08/11 01:35:30;;;;;;;10.20;6.68;;;;;;;16.11;89.18;101845.00;4971158;28;20053;-75
2023/08/11 01:38:09;;;;;;;8.55;6.97;;;;;;;16.11;89.05;101843.22;4985586;28;20046;-75
2023/08/11 01:40:37;;;;;;;10.35;7.55;;;;;;;16.11;89.22;101837.91;4986143;28;20618;-75
2023/08/11 01:43:10;;;;;;;11.52;8.18;;;;;;;16.12;89.49;101836.97;4985371;28;20069;-75
2023/08/11 01:45:37;;;;;;;16.40;7.70;;;;;;;16.11;89.42;101839.69;4973485;28;20528;-75
2023/08/11 01:48:09;;;;;;;9.52;7.65;;;;;;;16.08;89.50;101830.03;4967587;28;20309;-75
2023/08/11 01:50:37;;;;;;;11.40;7.90;;;;;;;16.06;89.76;101828.34;4951394;28;20093;-75
2023/08/11 01:53:05;;;;;;;8.93;7.65;;;;;;;16.05;89.70;101830.13;4987913;28;20062;-75
2023/08/11 01:55:33;;;;;;;10.07;7.40;;;;;;;16.04;89.76;101828.41;4987847;28;20050;-75
2023/08/11 01:58:01;;;;;;;10.45;7.90;;;;;;;16.05;89.54;101830.13;4970066;28;20074;-75
2023/08/11 02:00:28;;;;;;;10.77;7.85;;;;;;;16.04;89.80;101825.72;4986723;28;20178;-75
2023/08/11 02:02:58;;;;;;;17.15;8.70;;;;;;;16.03;89.50;101821.34;4987334;28;20554;-75
2023/08/11 02:05:26;;;;;;;11.35;8.27;;;;;;;16.02;89.38;101830.28;4970125;28;20038;-75
2023/08/11 02:07:55;;;;;;;12.65;8.38;;;;;;;16.02;89.25;101827.59;4988054;28;20065;-75
2023/08/11 02:10:23;;;;;;;12.63;8.52;;;;;;;16.02;89.17;101834.72;4970477;28;20050;-75
2023/08/11 02:12:50;;;;;;;11.88;8.50;;;;;;;16.01;89.24;101832.97;4987280;28;20057;-75
2023/08/11 02:15:18;;;;;;;12.52;8.23;;;;;;;15.99;89.10;101847.19;4970314;28;20046;-75
2023/08/11 02:17:45;;;;;;;12.93;9.00;;;;;;;15.98;89.13;101847.25;4983094;28;20113;-75
2023/08/11 02:20:21;;;;;;;11.85;8.52;;;;;;;15.97;88.62;101849.03;4978912;28;20038;-75
2023/08/11 02:22:51;;;;;;;13.30;8.52;;;;;;;15.96;89.07;101834.03;4988611;28;20120;-75
2023/08/11 02:25:21;;;;;;;13.77;8.60;;;;;;;15.94;89.15;101835.88;4973255;28;20474;-75
2023/08/11 02:27:50;;;;;;;12.20;9.02;;;;;;;15.90;89.10;101841.34;4974166;28;20047;-75
2023/08/11 02:30:18;;;;;;;12.20;8.57;;;;;;;15.88;89.42;101835.22;4974079;28;20050;-75
2023/08/11 02:32:45;;;;;;;14.95;9.35;;;;;;;15.82;89.80;101826.50;4974168;28;20050;-75
2023/08/11 02:35:17;;;;;;;11.65;9.15;;;;;;;15.79;89.94;101821.31;4990845;28;20053;-75
2023/08/11 02:37:44;;;;;;;13.02;8.45;;;;;;;15.76;90.24;101824.06;4991572;28;20053;-75
2023/08/11 02:40:12;;;;;;;13.95;9.40;;;;;;;15.74;90.47;101827.72;4973892;28;20046;-75
2023/08/11 02:42:49;;;;;;;15.75;9.32;;;;;;;15.70;90.54;101821.66;4991238;28;20048;-75
2023/08/11 02:45:16;;;;;;;11.40;9.23;;;;;;;15.67;90.56;101816.44;4974188;28;20647;-75
2023/08/11 02:47:43;;;;;;;13.73;9.18;;;;;;;15.64;90.83;101820.09;5006796;28;20077;-75
2023/08/11 02:50:11;;;;;;;11.52;9.20;;;;;;;15.62;90.79;101821.03;4985252;28;20034;-75
2023/08/11 02:52:38;;;;;;;12.43;10.27;;;;;;;15.61;91.22;101817.53;4973761;28;20469;-75
2023/08/11 02:55:07;;;;;;;13.88;9.50;;;;;;;15.58;91.33;101808.81;4974410;28;20063;-75
2023/08/11 02:57:35;;;;;;;12.52;10.05;;;;;;;15.57;91.27;101812.38;4973436;28;20101;-75
2023/08/11 03:00:14;;;;;;;13.60;10.48;;;;;;;15.56;91.59;101813.28;4972157;28;20050;-75
2023/08/11 03:02:46;;;;;;;13.07;9.75;;;;;;;15.53;91.37;101824.91;4973327;28;20050;-75
2023/08/11 03:05:16;;;;;;;14.35;10.73;;;;;;;15.52;91.38;101823.19;4973563;28;20056;-75
2023/08/11 03:07:46;;;;;;;13.25;10.27;;;;;;;15.48;91.59;101818.88;4974408;28;20051;-75
2023/08/11 03:10:13;;;;;;;13.77;10.20;;;;;;;15.47;91.63;101826.00;4989531;28;20046;-75
2023/08/11 03:12:42;;;;;;;11.35;10.10;;;;;;;15.46;91.35;101821.59;4973954;28;20038;-75
2023/08/11 03:15:10;;;;;;;14.18;10.35;;;;;;;15.45;91.49;101827.84;4973203;28;20043;-75
2023/08/11 03:17:38;;;;;;;11.50;10.07;;;;;;;15.44;91.29;101830.56;4983004;28;20081;-75
2023/08/11 03:20:12;;;;;;;14.25;10.30;;;;;;;15.41;91.37;101826.22;4971325;28;20039;-75
2023/08/11 03:22:43;;;;;;;15.43;9.60;;;;;;;15.39;91.31;101828.06;4986940;28;20042;-75
2023/08/11 03:25:12;;;;;;;13.73;9.80;;;;;;;15.36;91.55;101821.03;4972663;28;20044;-75
2023/08/11 03:27:41;;;;;;;13.07;9.93;;;;;;;15.34;91.79;101830.88;4957327;28;20046;-75
2023/08/11 03:30:13;;;;;;;12.93;9.60;;;;;;;15.29;91.91;101823.97;4972719;28;20100;-75
2023/08/11 03:32:44;;;;;;;13.98;9.35;;;;;;;15.25;92.11;101828.53;4962625;28;20070;-75
2023/08/11 03:35:14;;;;;;;12.95;8.82;;;;;;;15.22;92.15;101832.16;4973235;28;20526;-75
2023/08/11 03:37:41;;;;;;;10.75;8.38;;;;;;;15.19;92.51;101826.06;4953376;28;20053;-75
2023/08/11 03:40:12;;;;;;;12.50;9.38;;;;;;;15.15;92.31;101825.31;4971295;28;20039;-75
2023/08/11 03:42:44;;;;;;;13.20;9.82;;;;;;;15.11;92.38;101815.72;4972223;28;20046;-75
2023/08/11 03:45:14;;;;;;;12.65;9.63;;;;;;;15.08;92.37;101818.50;4988346;28;21612;-75
2023/08/11 03:47:43;;;;;;;14.63;9.68;;;;;;;15.05;92.78;101814.16;4989917;28;20149;-75
2023/08/11 03:50:17;;;;;;;13.38;9.75;;;;;;;15.01;92.59;101820.47;4989941;28;20038;-75
2023/08/11 03:52:45;;;;;;;12.68;9.80;;;;;;;14.99;93.39;101813.50;4988123;28;20137;-75
2023/08/11 03:55:12;;;;;;;11.27;10.07;;;;;;;14.96;93.53;101816.22;4975294;28;20050;-75
2023/08/11 03:57:40;;;;;;;14.05;10.95;;;;;;;14.94;93.54;101826.91;4971945;28;20050;-75
2023/08/11 04:00:14;;;;;;;11.65;10.32;;;;;;;14.92;93.78;101815.47;4971444;28;20136;-75
2023/08/11 04:02:45;;;;;;;12.85;10.98;;;;;;;14.91;94.03;101819.91;4972084;28;20077;-75
2023/08/11 04:05:16;;;;;;;15.25;11.07;;;;;;;14.90;94.12;101815.50;4987610;28;20046;-75
2023/08/11 04:07:44;;;;;;;15.13;11.15;;;;;;;14.89;93.96;101811.13;4989780;28;20057;-75
2023/08/11 04:10:11;;;;;;;12.82;10.57;;;;;;;14.89;94.28;101808.47;4989752;28;20046;-75
2023/08/11 04:12:38;;;;;;;13.60;11.23;;;;;;;14.90;94.55;101801.38;4988901;28;20061;-75
2023/08/11 04:15:06;;;;;;;15.77;10.70;;;;;;;14.90;94.76;101801.38;4988577;28;20077;-75
2023/08/11 04:17:33;;;;;;;20.67;11.10;;;;;;;14.89;94.52;101805.84;4974758;28;20053;-75
2023/08/11 04:20:10;;;;;;;15.10;10.70;;;;;;;14.89;94.60;101800.53;4970704;28;20517;-75
2023/08/11 04:22:37;;;;;;;12.18;10.75;;;;;;;14.93;94.15;101805.72;4972364;28;20070;-75
2023/08/11 04:25:09;;;;;;;14.77;10.80;;;;;;;14.94;94.28;101800.38;4972912;28;20046;-75
2023/08/11 04:27:39;;;;;;;17.67;11.57;;;;;;;14.98;93.86;101803.78;4971207;28;20050;-75
2023/08/11 04:30:09;;;;;;;15.45;11.23;;;;;;;15.00;93.78;101802.81;4972164;28;20767;-75
2023/08/11 04:32:38;;;;;;;16.20;11.65;;;;;;;15.04;93.47;101801.78;4972374;28;20098;-75
2023/08/11 04:35:07;;;;;;;12.18;10.57;;;;;;;15.10;93.48;101807.81;4972134;28;20660;-75
2023/08/11 04:37:37;;;;;;;14.52;11.68;;;;;;;15.15;93.38;101805.88;4971038;28;20046;-75
2023/08/11 04:40:11;;;;;;;11.77;10.48;;;;;;;15.21;93.16;101803.84;4988012;28;20078;-75
2023/08/11 04:42:40;;;;;;;16.58;10.77;;;;;;;15.27;92.91;101815.19;4987488;28;20046;-75
2023/08/11 04:45:10;;;;;;;17.00;11.63;;;;;;;15.31;92.79;101814.19;4987719;28;20046;-74
2023/08/11 04:47:40;;;;;;;13.85;10.65;;;;;;;15.34;92.41;101814.94;4982082;28;20066;-75
2023/08/11 04:50:11;;;;;;;13.07;10.55;;;;;;;15.41;92.43;101818.25;4971459;28;20121;-75
2023/08/11 04:52:38;;;;;;;15.32;10.82;;;;;;;15.45;92.36;101819.00;4971333;28;20498;-76
2023/08/11 04:55:07;;;;;;;13.65;10.63;;;;;;;15.48;92.38;101817.09;4988538;28;20069;-76
2023/08/11 04:57:35;;;;;;;13.75;11.00;;;;;;;15.53;92.15;101820.44;4994030;28;20117;-76
2023/08/11 05:00:13;;;;;;;13.85;10.30;;;;;;;15.59;92.13;101815.84;4971451;28;20085;-76
2023/08/11 05:02:44;;;;;;;12.38;9.20;;;;;;;15.65;92.08;101810.31;4987303;28;20042;-76
2023/08/11 05:05:12;;;;;;;11.60;8.88;;;;;;;15.68;92.03;101810.19;4977292;28;20122;-76
2023/08/11 05:07:39;;;;;;;13.75;9.07;;;;;;;15.74;91.85;101809.97;4988653;28;20046;-76
2023/08/11 05:10:08;;;;;;;12.10;8.98;;;;;;;15.82;91.87;101812.34;4988942;28;20449;-76
2023/08/11 05:12:35;;;;;;;11.40;9.55;;;;;;;15.94;91.90;101814.59;4987048;28;20054;-76
2023/08/11 05:15:03;;;;;;;11.50;9.02;;;;;;;16.08;91.20;101814.06;4988935;28;20571;-76
2023/08/11 05:17:31;;;;;;;12.45;9.35;;;;;;;16.28;90.64;101804.44;4987536;28;20038;-76
2023/08/11 05:19:58;;;;;;;11.20;8.43;;;;;;;16.55;89.50;101812.25;4969865;28;20774;-76
2023/08/11 05:22:26;;;;;;;12.00;8.43;;;;;;;16.78;88.25;101806.03;4987581;28;20069;-76
2023/08/11 05:24:53;;;;;;;10.65;8.43;;;;;;;16.74;88.25;101801.75;4967609;28;20097;-76
2023/08/11 05:27:20;;;;;;;9.88;8.55;;;;;;;16.74;88.06;101791.94;4967721;28;20052;-76
2023/08/11 05:29:48;;;;;;;11.05;8.07;;;;;;;16.83;87.68;101792.53;4975767;28;20419;-76
2023/08/11 05:32:15;;;;;;;12.40;8.18;;;;;;;16.88;87.56;101780.75;4984879;28;20426;-76
2023/08/11 05:34:42;;;;;;;12.73;8.73;;;;;;;17.12;87.71;101785.97;4987648;28;20109;-76
2023/08/11 05:37:09;;;;;;;9.80;7.60;;;;;;;18.90;83.03;101780.41;4971490;28;20137;-76
2023/08/11 05:39:38;;;;;;;11.18;7.80;;;;;;;20.78;77.23;101771.22;4988151;28;20050;-76
2023/08/11 05:42:07;;;;;;;7.93;6.88;;;;;;;22.38;71.31;101772.13;4986007;28;20038;-76
2023/08/11 05:44:35;;;;;;;9.75;6.85;;;;;;;23.75;66.68;101774.53;4987746;28;20054;-76
2023/08/11 05:47:05;;;;;;;8.15;5.72;;;;;;;24.83;61.95;101773.81;4976035;28;20096;-76
2023/08/11 05:49:33;;;;;;;8.27;6.10;;;;;;;25.75;57.79;101775.72;4971698;28;20039;-76
2023/08/11 05:52:00;;;;;;;9.48;5.68;;;;;;;26.44;55.64;101771.94;4987892;28;20145;-76
2023/08/11 05:54:27;;;;;;;8.52;5.35;;;;;;;26.99;53.44;101768.25;4987311;28;20058;-76
2023/08/11 05:56:54;;;;;;;8.73;5.85;;;;;;;26.77;52.51;101770.09;4988402;28;20042;-77
2023/08/11 05:59:21;;;;;;;8.68;5.40;;;;;;;25.21;55.71;101774.53;4990930;28;20136;-76
2023/08/11 06:01:49;;;;;;;9.07;5.60;;;;;;;23.56;57.89;101773.13;4973961;28;20053;-76
2023/08/11 06:04:16;;;;;;;7.65;5.70;;;;;;;22.30;61.50;101767.25;4992390;28;20057;-76
2023/08/11 06:06:44;;;;;;;8.63;5.72;;;;;;;21.36;64.51;101775.84;4975162;28;20502;-76
2023/08/11 06:09:11;;;;;;;8.50;5.82;;;;;;;20.62;67.29;101779.25;4992178;28;20056;-76
2023/08/11 06:11:38;;;;;;;9.48;5.75;;;;;;;20.08;69.16;101776.97;4992339;28;20045;-76
2023/08/11 06:14:05;;;;;;;10.05;6.22;;;;;;;19.68;70.94;101776.44;4991549;28;20660;-76
2023/08/11 06:16:32;;;;;;;12.55;6.72;;;;;;;19.41;72.21;101774.28;4991066;28;20070;-76
2023/08/11 06:18:59;;;;;;;10.90;6.50;;;;;;;19.21;73.59;101780.69;4990488;28;20574;-76
2023/08/11 06:21:27;;;;;;;12.10;7.00;;;;;;;19.07;74.42;101786.75;4992376;28;20069;-76
2023/08/11 06:23:54;;;;;;;9.38;6.38;;;;;;;19.00;74.94;101785.31;4990842;28;20038;-76
2023/08/11 06:26:21;;;;;;;8.65;6.60;;;;;;;18.93;75.50;101784.75;4991510;28;20050;-76
2023/08/11 06:28:48;;;;;;;10.38;6.25;;;;;;;18.90;76.06;101785.75;4974311;28;20073;-76
2023/08/11 06:31:19;;;;;;;12.35;6.55;;;;;;;18.87;76.56;101787.72;4974090;28;20080;-76
2023/08/11 06:33:47;;;;;;;10.52;6.75;;;;;;;18.84;76.53;101783.41;4992171;28;20050;-76
2023/08/11 06:36:14;;;;;;;11.77;6.50;;;;;;;18.84;77.16;101778.06;4973734;28;20042;-76
2023/08/11 06:38:42;;;;;;;8.88;6.50;;;;;;;18.89;77.17;101791.19;4974375;28;20050;-76
2023/08/11 06:41:09;;;;;;;11.80;6.90;;;;;;;18.93;77.32;101784.75;4990874;28;20051;-76
2023/08/11 06:43:39;;;;;;;10.82;6.78;;;;;;;18.98;77.50;101784.53;4991017;28;20050;-76
2023/08/11 06:46:06;;;;;;;10.63;6.60;;;;;;;19.02;77.64;101787.00;4990944;28;20044;-76
2023/08/11 06:48:34;;;;;;;12.23;6.88;;;;;;;19.08;77.74;101784.00;4958416;28;20046;-76
2023/08/11 06:51:02;;;;;;;9.75;6.40;;;;;;;19.16;77.05;101780.94;4990342;28;20047;-76
2023/08/11 06:53:29;;;;;;;10.13;6.57;;;;;;;19.22;77.51;101783.28;4969462;28;20055;-76
2023/08/11 06:55:56;;;;;;;16.75;7.28;;;;;;;19.31;77.63;101789.09;4986649;28;20125;-76
2023/08/11 06:58:23;;;;;;;10.95;7.20;;;;;;;19.40;77.35;101796.63;4970117;28;20499;-76
2023/08/11 07:00:52;;;;;;;10.48;6.80;;;;;;;19.48;77.18;101794.44;4965829;28;20051;-76
2023/08/11 07:03:20;;;;;;;9.15;6.28;;;;;;;19.57;76.78;101789.53;4968483;28;20050;-76
2023/08/11 07:05:51;;;;;;;10.80;6.50;;;;;;;19.66;76.99;101789.03;4970359;28;20495;-75
2023/08/11 07:08:19;;;;;;;10.15;7.00;;;;;;;19.75;76.83;101793.00;4970753;28;20043;-76
2023/08/11 07:10:47;;;;;;;9.00;6.60;;;;;;;19.84;76.29;101797.88;4971517;28;20046;-76
2023/08/11 07:13:14;;;;;;;13.63;7.30;;;;;;;19.91;75.99;101795.75;4981998;28;20086;-76
2023/08/11 07:15:42;;;;;;;11.15;6.75;;;;;;;19.97;76.05;101800.78;4964954;28;20507;-76
2023/08/11 07:18:10;;;;;;;12.63;6.95;;;;;;;20.05;75.85;101803.00;4969932;28;20082;-76
2023/08/11 07:20:42;;;;;;;12.60;6.93;;;;;;;20.14;75.62;101800.69;4969928;28;20116;-76
2023/08/11 07:23:10;;;;;;;11.50;7.10;;;;;;;20.22;75.26;101808.31;4972231;28;20038;-76
2023/08/11 07:25:38;;;;;;;9.65;6.40;;;;;;;20.29;75.34;101807.00;4970966;28;20137;-76
2023/08/11 07:28:05;;;;;;;12.23;6.47;;;;;;;20.39;75.29;101810.06;4970046;28;20043;-76
2023/08/11 07:30:32;;;;;;;10.98;6.50;;;;;;;20.52;75.41;101807.53;4969748;28;20051;-76
2023/08/11 07:33:01;;;;;;;9.93;6.28;;;;;;;20.64;75.54;101813.97;4969266;28;20047;-76
2023/08/11 07:35:29;;;;;;;11.68;6.75;;;;;;;20.75;74.55;101806.22;4967048;28;20101;-76
2023/08/11 07:37:56;;;;;;;10.80;6.82;;;;;;;20.85;74.63;101811.94;4968336;28;20202;-76
2023/08/11 07:40:23;;;;;;;9.32;5.88;;;;;;;20.94;74.53;101810.50;4969797;28;20499;-76
2023/08/11 07:42:50;;;;;;;9.32;6.38;;;;;;;21.02;74.32;101805.53;4968395;28;20042;-76
2023/08/11 07:45:17;;;;;;;14.10;6.95;;;;;;;21.12;74.34;101802.31;4969394;28;20066;-76
2023/08/11 07:47:44;;;;;;;15.60;7.68;;;;;;;21.24;74.10;101804.25;4954827;28;20097;-76
2023/08/11 07:50:11;;;;;;;10.18;6.43;;;;;;;21.36;74.05;101800.84;4970549;28;20049;-76
2023/08/11 07:52:38;;;;;;;14.50;6.20;;;;;;;21.48;73.88;101809.94;4974220;28;20050;-76
2023/08/11 07:55:06;;;;;;;11.10;6.28;;;;;;;21.57;73.15;101806.69;4990482;28;20050;-76
2023/08/11 07:57:33;;;;;;;10.73;6.90;;;;;;;21.66;72.66;101808.00;4989158;28;20512;-76
2023/08/11 08:00:00;;;;;;;8.82;6.18;;;;;;;21.73;72.71;101805.78;4979943;28;20047;-76
2023/08/11 08:02:38;;;;;;;12.57;6.13;;;;;;;21.86;73.33;101806.75;4983505;28;20410;-76
2023/08/11 08:05:06;;;;;;;10.68;6.25;;;;;;;21.98;72.75;101807.78;4986641;28;20050;-76
2023/08/11 08:07:39;;;;;;;8.85;5.93;;;;;;;22.09;72.60;101804.41;4990171;28;20050;-76
2023/08/11 08:10:11;;;;;;;11.23;6.47;;;;;;;22.22;72.65;101807.19;4988551;28;20101;-76
2023/08/11 08:12:39;;;;;;;10.68;5.90;;;;;;;22.34;72.35;101811.75;4988632;28;20116;-76
2023/08/11 08:15:09;;;;;;;10.30;5.97;;;;;;;22.44;71.99;101811.16;4971615;28;20402;-76
2023/08/11 08:17:37;;;;;;;9.80;5.95;;;;;;;22.55;71.28;101805.94;4972494;28;20038;-76
2023/08/11 08:20:09;;;;;;;8.40;5.60;;;;;;;22.63;71.47;101811.72;4988379;28;20042;-76
2023/08/11 08:22:37;;;;;;;8.35;5.88;;;;;;;22.75;71.46;101810.03;4989268;28;20039;-77
2023/08/11 08:25:08;;;;;;;9.05;5.68;;;;;;;22.86;71.05;101809.28;4989702;28;20093;-76
2023/08/11 08:27:40;;;;;;;9.98;5.57;;;;;;;22.96;70.56;101814.91;4952043;28;20066;-76
2023/08/11 08:30:10;;;;;;;7.55;5.50;;;;;;;23.03;69.87;101812.69;4978209;28;20082;-76
2023/08/11 08:32:41;;;;;;;7.72;5.13;;;;;;;23.08;69.46;101802.44;4971267;28;20116;-76
2023/08/11 08:35:10;;;;;;;10.35;5.07;;;;;;;23.22;69.36;101814.97;4987512;28;20042;-76
2023/08/11 08:37:37;;;;;;;8.50;5.10;;;;;;;23.32;68.77;101815.22;4970682;28;20050;-77
2023/08/11 08:40:07;;;;;;;10.70;5.63;;;;;;;23.43;68.97;101801.88;4972304;28;20046;-77
2023/08/11 08:42:34;;;;;;;7.53;4.63;;;;;;;23.53;67.89;101808.34;4988594;28;20042;-76
2023/08/11 08:45:03;;;;;;;8.93;5.05;;;;;;;23.65;67.78;101803.06;4971722;28;20545;-76
2023/08/11 08:47:32;;;;;;;6.20;4.60;;;;;;;23.76;67.73;101804.97;4988181;28;20097;-76
2023/08/11 08:50:03;;;;;;;7.70;4.80;;;;;;;23.89;66.71;101806.69;4997363;28;20089;-76
2023/08/11 08:52:31;;;;;;;9.05;5.20;;;;;;;23.99;66.36;101803.34;4989176;28;20165;-74
2023/08/11 08:55:00;;;;;;;8.63;4.85;;;;;;;24.10;66.02;101797.22;4989030;28;20085;-76
2023/08/11 08:57:27;;;;;;;9.35;4.50;;;;;;;24.18;65.69;101805.59;4971891;28;20061;-76
2023/08/11 08:59:56;;;;;;;8.68;4.20;;;;;;;24.31;65.70;101801.03;4986463;28;20081;-76
2023/08/11 09:02:30;;;;;;;9.55;4.32;;;;;;;24.45;64.51;101801.81;4970986;28;20042;-76
2023/08/11 09:04:58;;;;;;;6.28;4.60;;;;;;;24.58;64.62;101801.75;4970877;28;20060;-76
2023/08/11 09:07:25;;;;;;;8.15;4.20;;;;;;;24.63;63.99;101797.75;4987699;28;20046;-75
2023/08/11 09:09:52;;;;;;;7.20;4.13;;;;;;;24.74;63.77;101798.78;4988206;28;20089;-75
2023/08/11 09:12:19;;;;;;;12.05;4.50;;;;;;;24.84;62.83;101807.06;4971429;28;20104;-75
2023/08/11 09:14:46;;;;;;;7.93;3.80;;;;;;;24.89;61.93;101802.16;4970311;28;20062;-75
2023/08/11 09:17:15;;;;;;;7.38;3.80;;;;;;;24.98;62.71;101804.16;4989401;28;20046;-75
2023/08/11 09:19:47;;;;;;;8.38;4.10;;;;;;;25.11;62.63;101801.41;4987450;28;20065;-75
2023/08/11 09:22:14;;;;;;;4.70;3.88;;;;;;;25.20;61.62;101806.06;4988372;28;20050;-75
2023/08/11 09:24:45;;;;;;;11.40;4.30;;;;;;;25.30;61.56;101810.75;4986738;28;20630;-75
2023/08/11 09:27:13;;;;;;;6.63;3.88;;;;;;;25.34;61.29;101798.72;4988322;28;20556;-76
2023/08/11 09:29:40;;;;;;;8.80;3.83;;;;;;;25.40;60.40;101806.38;4969968;28;20050;-76
2023/08/11 09:32:07;;;;;;;7.97;4.22;;;;;;;25.53;60.49;101803.56;4976972;28;20461;-75
2023/08/11 09:34:39;;;;;;;7.03;4.28;;;;;;;25.63;60.63;101801.00;4972871;28;20070;-76
2023/08/11 09:37:06;;;;;;;6.22;4.43;;;;;;;25.73;60.32;101802.84;4977633;28;20133;-75
2023/08/11 09:39:34;;;;;;;6.32;3.90;;;;;;;25.82;60.16;101798.56;4987714;28;20414;-76
2023/08/11 09:42:01;;;;;;;7.38;3.88;;;;;;;25.99;60.17;101793.63;4991066;28;20089;-76
2023/08/11 09:44:29;;;;;;;7.88;3.90;;;;;;;26.11;59.00;101797.19;4971020;28;20054;-76
2023/08/11 09:46:56;;;;;;;7.43;4.10;;;;;;;26.21;58.24;101792.75;4976787;28;20060;-75
2023/08/11 09:49:23;;;;;;;5.55;4.05;;;;;;;26.31;57.77;101799.13;4986883;28;20073;-76
2023/08/11 09:51:54;;;;;;;7.97;3.92;;;;;;;26.40;58.05;101794.78;4987831;28;20110;-76
2023/08/11 09:54:23;;;;;;;10.05;3.72;;;;;;;26.45;56.97;101792.59;4989110;28;20065;-76
2023/08/11 09:56:53;;;;;;;6.95;3.45;;;;;;;26.51;57.20;101789.34;4970956;28;20054;-76
2023/08/11 09:59:22;;;;;;;7.75;3.78;;;;;;;26.63;56.23;101787.47;4987812;28;20105;-76
2023/08/11 10:01:53;;;;;;;6.53;3.08;;;;;;;26.72;56.84;101783.13;4983989;28;20066;-76
2023/08/11 10:04:38;;;;;;;5.93;2.90;;;;;;;26.87;55.43;101785.53;4988243;28;20058;-75
2023/08/11 10:07:12;;;;;;;7.40;2.97;;;;;;;26.98;55.35;101790.88;4988200;28;20053;-76
2023/08/11 10:09:44;;;;;;;6.65;3.40;;;;;;;27.05;54.62;101791.22;4970844;28;20058;-76
2023/08/11 10:12:12;;;;;;;6.55;3.45;;;;;;;27.11;54.79;101788.00;4954819;28;20104;-76
2023/08/11 10:14:41;;;;;;;5.95;3.00;;;;;;;27.22;54.48;101784.34;4986806;28;20058;-75
2023/08/11 10:17:11;;;;;;;6.82;3.28;;;;;;;27.34;54.51;101777.88;4987535;28;20050;-76
2023/08/11 10:19:39;;;;;;;4.90;3.22;;;;;;;27.50;53.96;101779.25;4938298;28;20051;-76
2023/08/11 10:22:06;;;;;;;19.63;3.47;;;;;;;27.62;54.27;101775.47;4968771;28;20078;-76
2023/08/11 10:24:37;;;;;;;5.22;2.88;;;;;;;27.71;52.20;101779.22;4951538;28;20541;-76
2023/08/11 10:27:06;;;;;;;4.47;2.50;;;;;;;27.77;51.44;101788.66;4951421;28;20051;-75
2023/08/11 10:29:38;;;;;;;7.65;3.10;;;;;;;27.82;51.63;101779.13;4968845;28;20054;-75
2023/08/11 10:32:05;;;;;;;4.43;2.53;;;;;;;27.90;51.64;101779.28;4968027;28;20550;-75
2023/08/11 10:34:33;;;;;;;4.93;2.83;;;;;;;28.05;52.17;101778.88;4960628;28;20050;-75
2023/08/11 10:37:00;;;;;;;7.10;2.72;;;;;;;28.18;50.87;101787.66;4970730;28;20073;-76
2023/08/11 10:39:27;;;;;;;3.50;2.53;;;;;;;28.34;50.70;101786.25;4987992;28;20714;-76
2023/08/11 10:41:57;;;;;;;5.93;2.17;;;;;;;28.57;49.97;101792.28;4971031;28;20046;-76
2023/08/11 10:44:29;;;;;;;6.07;1.75;;;;;;;28.69;48.99;101784.84;4989060;28;20050;-76
2023/08/11 10:47:02;;;;;;;5.38;1.77;;;;;;;28.80;47.46;101783.84;4989711;28;20637;-76
2023/08/11 10:49:40;;;;;;;5.25;1.77;;;;;;;28.84;46.08;101774.44;4974704;28;20049;-76
2023/08/11 10:52:07;;;;;;;10.63;2.45;;;;;;;28.95;47.24;101774.28;4990830;28;20054;-75
2023/08/11 10:54:35;;;;;;;4.30;1.80;;;;;;;29.05;47.09;101771.53;4970887;28;20047;-76
2023/08/11 10:57:03;;;;;;;3.53;2.00;;;;;;;29.14;45.57;101775.25;4971699;28;20054;-76
2023/08/11 10:59:33;;;;;;;6.50;2.22;;;;;;;29.11;44.96;101773.69;4972094;28;20737;-76
2023/08/11 11:02:01;;;;;;;4.53;2.20;;;;;;;29.22;45.44;101780.78;4984489;28;20519;-76
2023/08/11 11:04:31;;;;;;;3.28;1.60;;;;;;;29.31;45.86;101773.63;4990637;28;20085;-76
2023/08/11 11:07:00;;;;;;;3.47;1.70;;;;;;;29.48;44.96;101768.44;4973776;28;20057;-76
2023/08/11 11:09:28;;;;;;;7.95;1.80;;;;;;;29.44;46.29;101768.78;4990212;28;20051;-76
2023/08/11 11:11:56;;;;;;;3.50;1.70;;;;;;;29.44;46.69;101774.19;4985704;28;20051;-76
2023/08/11 11:14:24;;;;;;;4.65;2.03;;;;;;;29.61;46.02;101774.41;4981042;28;20125;-76
2023/08/11 11:16:58;;;;;;;3.70;1.80;;;;;;;29.73;46.12;101769.63;4989534;28;20081;-76
2023/08/11 11:19:26;;;;;;;5.80;2.15;;;;;;;29.81;44.52;101775.16;4974477;28;20498;-76
2023/08/11 11:21:54;;;;;;;4.22;1.80;;;;;;;29.85;44.64;101773.84;4989945;28;20046;-76
2023/08/11 11:24:25;;;;;;;5.90;1.75;;;;;;;29.91;44.58;101772.41;4990113;28;20046;-76
2023/08/11 11:26:52;;;;;;;4.18;2.03;;;;;;;29.97;43.37;101777.25;4990134;28;20042;-76